createdAt,value
2023-01-31T00:01:26.327Z,3.80
2023-01-31T00:03:57.807Z,3.90
2023-01-31T00:06:29.951Z,3.90
2023-01-31T00:08:57.993Z,4.00
2023-01-31T00:11:27.023Z,4.00
2023-01-31T00:13:54.107Z,4.00
2023-01-31T00:16:22.413Z,4.00
2023-01-31T00:18:49.693Z,4.00
2023-01-31T00:21:24.906Z,4.00
2023-01-31T00:23:52.975Z,4.10
2023-01-31T00:26:21.506Z,4.10
2023-01-31T00:28:50.050Z,4.20
2023-01-31T00:31:18.579Z,4.10
2023-01-31T00:33:47.085Z,4.20
2023-01-31T00:36:16.839Z,4.20
2023-01-31T00:38:44.704Z,4.20
2023-01-31T00:41:11.993Z,4.20
2023-01-31T00:43:38.791Z,4.20
2023-01-31T00:46:05.770Z,4.20
2023-01-31T00:48:33.122Z,4.20
2023-01-31T00:50:59.916Z,4.20
2023-01-31T00:53:26.678Z,4.20
2023-01-31T00:55:56.346Z,4.20
2023-01-31T00:58:23.103Z,4.30
2023-01-31T01:03:17.299Z,4.20
2023-01-31T01:05:44.100Z,4.20
2023-01-31T01:08:10.836Z,4.20
2023-01-31T01:10:37.627Z,4.30
2023-01-31T01:13:05.792Z,4.20
2023-01-31T01:15:32.911Z,4.30
2023-01-31T01:17:59.742Z,4.30
2023-01-31T01:20:26.488Z,4.40
2023-01-31T01:22:53.551Z,4.30
2023-01-31T01:25:20.665Z,4.30
2023-01-31T01:27:47.569Z,4.30
2023-01-31T01:30:14.432Z,4.30
2023-01-31T01:32:41.147Z,4.30
2023-01-31T01:35:09.413Z,4.20
2023-01-31T01:37:36.384Z,4.20
2023-01-31T01:40:03.720Z,4.20
2023-01-31T01:42:35.121Z,4.20
2023-01-31T01:45:05.594Z,4.20
2023-01-31T01:47:42.611Z,4.20
2023-01-31T01:50:30.278Z,4.20
2023-01-31T01:53:00.690Z,4.20
2023-01-31T01:55:36.227Z,4.10
2023-01-31T01:58:23.187Z,4.20
2023-01-31T02:00:50.900Z,4.10
2023-01-31T02:03:17.782Z,4.20
2023-01-31T02:05:47.959Z,4.10
2023-01-31T02:08:18.533Z,4.10
2023-01-31T02:11:12.810Z,4.10
2023-01-31T02:13:45.112Z,4.10
2023-01-31T02:16:11.934Z,4.10
2023-01-31T02:18:38.964Z,4.00
2023-01-31T02:21:20.390Z,4.00
2023-01-31T02:24:08.316Z,4.10
2023-01-31T02:27:04.739Z,4.00
2023-01-31T02:30:09.571Z,4.00
2023-01-31T02:32:46.825Z,4.00
2023-01-31T02:35:25.708Z,4.00
2023-01-31T02:37:55.241Z,4.00
2023-01-31T02:40:32.024Z,4.00
2023-01-31T02:43:19.223Z,4.00
2023-01-31T02:46:11.446Z,3.90
2023-01-31T02:49:08.641Z,3.90
2023-01-31T02:52:05.606Z,3.90
2023-01-31T02:54:54.258Z,3.80
2023-01-31T02:57:22.336Z,3.80
2023-01-31T02:59:49.131Z,3.70
2023-01-31T03:02:16.117Z,3.70
2023-01-31T03:04:43.308Z,3.70
2023-01-31T03:07:33.719Z,3.70
2023-01-31T03:10:25.289Z,3.60
2023-01-31T03:13:29.413Z,3.60
2023-01-31T03:16:39.585Z,3.50
2023-01-31T03:19:19.971Z,3.40
2023-01-31T03:21:52.997Z,3.30
2023-01-31T03:24:20.652Z,3.30
2023-01-31T03:26:48.005Z,3.20
2023-01-31T03:29:16.499Z,3.20
2023-01-31T03:32:11.798Z,3.20
2023-01-31T03:34:38.888Z,3.20
2023-01-31T03:37:19.756Z,3.20
2023-01-31T03:40:12.825Z,3.20
2023-01-31T03:42:55.544Z,3.20
2023-01-31T03:45:53.040Z,3.20
2023-01-31T03:48:22.740Z,3.10
2023-01-31T03:51:12.958Z,3.10
2023-01-31T03:53:49.391Z,3.10
2023-01-31T03:56:30.443Z,3.10
2023-01-31T03:59:12.156Z,3.00
2023-01-31T04:01:44.947Z,3.00
2023-01-31T04:04:17.837Z,3.00
2023-01-31T04:06:44.643Z,2.90
2023-01-31T04:09:11.463Z,2.90
2023-01-31T04:11:40.388Z,2.90
2023-01-31T04:14:08.172Z,3.00
2023-01-31T04:19:02.166Z,3.00
2023-01-31T04:21:28.960Z,3.00
2023-01-31T04:23:55.705Z,3.00
2023-01-31T04:26:22.820Z,3.00
2023-01-31T04:28:50.510Z,3.00
2023-01-31T04:31:17.456Z,3.00
2023-01-31T04:33:44.351Z,3.00
2023-01-31T04:36:11.317Z,3.00
2023-01-31T04:38:38.154Z,3.10
2023-01-31T04:41:05.020Z,3.10
2023-01-31T04:43:31.904Z,3.10
2023-01-31T04:45:58.644Z,3.10
2023-01-31T04:48:25.459Z,3.10
2023-01-31T04:53:19.389Z,3.20
2023-01-31T04:55:46.122Z,3.20
2023-01-31T05:00:40.033Z,3.30
2023-01-31T05:03:07.329Z,3.30
2023-01-31T05:05:36.294Z,3.30
2023-01-31T05:08:03.540Z,3.30
2023-01-31T05:10:30.240Z,3.30
2023-01-31T05:12:57.051Z,3.30
2023-01-31T05:17:54.422Z,3.30
2023-01-31T05:20:21.377Z,3.30
2023-01-31T05:22:51.715Z,3.30
2023-01-31T05:25:18.721Z,3.40
2023-01-31T05:27:45.703Z,3.40
2023-01-31T05:30:12.981Z,3.40
2023-01-31T05:32:39.940Z,3.40
2023-01-31T05:35:06.928Z,3.40
2023-01-31T05:37:33.721Z,3.40
2023-01-31T05:40:00.408Z,3.40
2023-01-31T05:44:54.277Z,3.40
2023-01-31T05:52:17.383Z,3.60
2023-01-31T05:54:44.112Z,3.60
2023-01-31T05:57:10.846Z,3.60
2023-01-31T06:02:04.788Z,3.70
2023-01-31T06:04:32.097Z,3.70
2023-01-31T06:06:59.157Z,3.70
2023-01-31T06:11:52.994Z,3.70
2023-01-31T06:14:19.757Z,3.70
2023-01-31T06:19:13.828Z,3.80
2023-01-31T06:24:07.929Z,3.80
2023-01-31T06:26:34.737Z,3.80
2023-01-31T06:29:01.566Z,3.90
2023-01-31T06:31:28.586Z,3.90
2023-01-31T06:33:55.404Z,4.00
2023-01-31T06:36:22.158Z,4.00
2023-01-31T06:38:50.819Z,4.00
2023-01-31T06:41:18.540Z,4.00
2023-01-31T06:43:45.200Z,4.10
2023-01-31T06:46:12.191Z,4.00
2023-01-31T06:48:38.946Z,4.10
2023-01-31T06:51:06.066Z,4.10
2023-01-31T06:53:32.813Z,4.20
2023-01-31T06:55:59.538Z,4.20
2023-01-31T06:58:26.361Z,4.20
2023-01-31T07:03:20.534Z,4.20
2023-01-31T07:05:48.676Z,4.20
2023-01-31T07:10:42.753Z,4.30
2023-01-31T07:15:36.676Z,4.30
2023-01-31T07:18:03.447Z,4.30
2023-01-31T07:20:30.364Z,4.40
2023-01-31T07:22:58.112Z,4.40
2023-01-31T07:25:25.846Z,4.50
2023-01-31T07:27:52.857Z,4.40
2023-01-31T07:30:19.872Z,4.40
2023-01-31T07:32:46.813Z,4.40
2023-01-31T07:35:13.911Z,4.40
2023-01-31T07:37:43.385Z,4.40
2023-01-31T07:40:12.473Z,4.40
2023-01-31T07:42:39.691Z,4.40
2023-01-31T07:45:33.612Z,4.40
2023-01-31T07:47:58.904Z,4.40
2023-01-31T07:50:27.258Z,4.40
2023-01-31T07:52:54.232Z,4.30
2023-01-31T07:55:21.504Z,4.30
2023-01-31T07:57:48.628Z,4.30
2023-01-31T08:00:34.108Z,4.30
2023-01-31T08:03:19.519Z,4.30
2023-01-31T08:05:47.693Z,4.30
2023-01-31T08:08:14.674Z,4.40
2023-01-31T08:10:41.537Z,4.40
2023-01-31T08:13:08.266Z,4.40
2023-01-31T08:15:35.022Z,4.50
2023-01-31T08:18:03.830Z,4.50
2023-01-31T08:20:31.961Z,4.50
2023-01-31T08:22:59.929Z,4.40
2023-01-31T08:25:32.018Z,4.40
2023-01-31T08:27:59.603Z,4.50
2023-01-31T08:30:27.112Z,4.50
2023-01-31T08:32:53.953Z,4.60
2023-01-31T08:35:20.997Z,4.60
2023-01-31T08:37:48.430Z,4.60
2023-01-31T08:40:15.340Z,4.60
2023-01-31T08:42:42.673Z,4.60
2023-01-31T08:45:10.124Z,4.70
2023-01-31T08:47:37.323Z,4.70
2023-01-31T08:50:04.341Z,4.70
2023-01-31T08:52:35.362Z,4.60
2023-01-31T08:55:02.912Z,4.60
2023-01-31T08:57:30.255Z,4.60
2023-01-31T09:02:24.408Z,4.50
2023-01-31T09:04:51.135Z,4.50
2023-01-31T09:07:21.631Z,4.40
2023-01-31T09:09:49.514Z,4.40
2023-01-31T09:12:16.318Z,4.40
2023-01-31T09:14:43.051Z,4.40
2023-01-31T09:17:10.897Z,4.30
2023-01-31T09:19:38.819Z,4.30
2023-01-31T09:22:05.603Z,4.30
2023-01-31T09:24:32.304Z,4.20
2023-01-31T09:26:59.293Z,4.30
2023-01-31T09:31:53.400Z,4.20
2023-01-31T09:34:22.114Z,4.30
2023-01-31T09:36:49.129Z,4.20
2023-01-31T09:39:15.978Z,4.30
2023-01-31T09:41:52.031Z,4.30
2023-01-31T09:44:28.304Z,4.30
2023-01-31T09:47:15.276Z,4.30
2023-01-31T09:49:51.554Z,4.30
2023-01-31T09:52:18.612Z,4.40
2023-01-31T09:54:45.680Z,4.40
2023-01-31T09:57:12.423Z,4.40
2023-01-31T10:00:03.419Z,4.40
2023-01-31T10:02:50.000Z,4.40
2023-01-31T10:05:23.762Z,4.40
2023-01-31T10:08:22.663Z,4.40
2023-01-31T10:10:57.288Z,4.50
2023-01-31T10:13:38.944Z,4.40
2023-01-31T10:16:30.466Z,4.50
2023-01-31T10:19:05.737Z,4.50
2023-01-31T10:21:41.140Z,4.40
2023-01-31T10:24:23.909Z,4.50
2023-01-31T10:26:55.263Z,4.50
2023-01-31T10:29:42.685Z,4.50
2023-01-31T10:32:25.093Z,4.50
2023-01-31T10:34:57.433Z,4.60
2023-01-31T10:37:44.425Z,4.60
2023-01-31T10:40:23.947Z,4.60
2023-01-31T10:42:56.070Z,4.60
2023-01-31T10:45:31.087Z,4.60
2023-01-31T10:48:04.804Z,4.60
2023-01-31T10:50:46.307Z,4.70
2023-01-31T10:53:13.112Z,4.70
2023-01-31T10:56:04.442Z,4.60
2023-01-31T10:58:31.507Z,4.70
2023-01-31T11:00:58.928Z,4.80
2023-01-31T11:03:26.147Z,4.80
2023-01-31T11:05:58.122Z,4.80
2023-01-31T11:08:31.404Z,4.80
2023-01-31T11:11:04.281Z,4.80
2023-01-31T11:15:58.576Z,4.80
2023-01-31T11:18:44.607Z,4.80
2023-01-31T11:21:30.130Z,4.80
2023-01-31T11:24:06.859Z,4.80
2023-01-31T11:26:53.552Z,4.90
2023-01-31T11:29:30.316Z,4.90
2023-01-31T11:31:59.381Z,4.80
2023-01-31T11:34:31.357Z,4.90
2023-01-31T11:37:15.842Z,4.90
2023-01-31T11:39:42.683Z,4.90
2023-01-31T11:42:16.705Z,4.90
2023-01-31T11:45:01.150Z,4.90
2023-01-31T11:47:43.611Z,4.90
2023-01-31T11:55:49.272Z,4.90
2023-01-31T11:58:22.026Z,4.90
2023-01-31T12:01:12.825Z,4.90
2023-01-31T12:04:01.926Z,4.90
2023-01-31T12:06:37.341Z,4.90
2023-01-31T12:09:19.677Z,4.90
2023-01-31T12:12:02.768Z,4.90
2023-01-31T12:14:41.335Z,4.90
2023-01-31T12:17:14.770Z,5.00
2023-01-31T12:19:59.368Z,5.00
2023-01-31T12:22:44.724Z,4.90
2023-01-31T12:25:28.188Z,5.00
2023-01-31T12:28:20.091Z,5.00
2023-01-31T12:31:01.571Z,5.00
2023-01-31T12:33:47.175Z,5.00
2023-01-31T12:36:31.833Z,5.10
2023-01-31T12:39:19.696Z,5.00
2023-01-31T12:42:04.546Z,5.00
2023-01-31T12:45:01.363Z,5.00
2023-01-31T12:47:42.815Z,5.00
2023-01-31T12:50:26.796Z,5.00
2023-01-31T12:53:23.545Z,5.00
2023-01-31T12:56:00.377Z,5.00
2023-01-31T12:59:06.293Z,5.00
2023-01-31T13:01:47.303Z,4.90
2023-01-31T13:04:45.152Z,4.90
2023-01-31T13:07:24.723Z,4.90
2023-01-31T13:09:54.176Z,5.00
2023-01-31T13:14:57.197Z,5.00
2023-01-31T13:17:28.394Z,4.90
2023-01-31T13:19:59.010Z,5.00
2023-01-31T13:22:53.221Z,5.00
2023-01-31T13:25:28.744Z,5.00
2023-01-31T13:28:13.447Z,5.00
2023-01-31T13:31:02.866Z,5.00
2023-01-31T13:33:35.815Z,5.00
2023-01-31T13:36:23.616Z,5.00
2023-01-31T13:38:52.414Z,5.00
2023-01-31T13:41:22.983Z,5.10
2023-01-31T13:43:49.826Z,5.10
2023-01-31T13:46:22.697Z,5.10
2023-01-31T13:48:55.514Z,5.20
2023-01-31T13:51:43.985Z,5.20
2023-01-31T13:54:10.698Z,5.20
2023-01-31T13:56:40.662Z,5.30
2023-01-31T13:59:09.667Z,5.30
2023-01-31T14:01:45.851Z,5.30
2023-01-31T14:04:14.061Z,5.40
2023-01-31T14:06:55.690Z,5.40
2023-01-31T14:09:31.854Z,5.40
2023-01-31T14:12:20.023Z,5.50
2023-01-31T14:14:54.540Z,5.50
2023-01-31T14:17:21.219Z,5.50
2023-01-31T14:19:48.171Z,5.50
2023-01-31T14:22:18.820Z,5.50
2023-01-31T14:24:56.010Z,5.60
2023-01-31T14:27:24.148Z,5.60
2023-01-31T14:30:11.356Z,5.60
2023-01-31T14:33:09.438Z,5.50
2023-01-31T14:35:47.837Z,5.60
2023-01-31T14:38:26.516Z,5.60
2023-01-31T14:41:08.737Z,5.60
2023-01-31T14:43:41.309Z,5.60
2023-01-31T14:46:25.283Z,5.70
2023-01-31T14:49:16.506Z,5.70
2023-01-31T14:52:03.459Z,5.70
2023-01-31T14:54:48.443Z,5.60
2023-01-31T14:57:20.047Z,5.70
2023-01-31T14:59:55.771Z,5.70
2023-01-31T15:02:32.123Z,5.70
2023-01-31T15:05:01.826Z,5.70
2023-01-31T15:07:29.156Z,5.70
2023-01-31T15:09:56.082Z,5.80
2023-01-31T15:13:00.812Z,5.80
2023-01-31T15:15:35.767Z,5.90
2023-01-31T15:18:11.298Z,5.90
2023-01-31T15:20:43.593Z,5.90
2023-01-31T15:23:30.125Z,6.00
2023-01-31T15:25:59.246Z,6.10
2023-01-31T15:28:29.102Z,6.10
2023-01-31T15:31:00.964Z,6.10
2023-01-31T15:33:43.566Z,6.10
2023-01-31T15:36:32.711Z,6.10
2023-01-31T15:39:26.027Z,6.10
2023-01-31T15:41:53.124Z,6.20
2023-01-31T15:44:22.361Z,6.10
2023-01-31T15:46:58.091Z,6.20
2023-01-31T15:49:39.031Z,6.20
2023-01-31T15:52:14.010Z,6.20
2023-01-31T15:54:58.685Z,6.20
2023-01-31T15:57:37.355Z,6.20
2023-01-31T16:00:05.151Z,6.20
2023-01-31T16:02:37.894Z,6.20
2023-01-31T16:05:08.294Z,6.30
2023-01-31T16:07:35.660Z,6.30
2023-01-31T16:10:02.975Z,6.30
2023-01-31T16:12:31.769Z,6.40
2023-01-31T16:15:03.886Z,6.40
2023-01-31T16:17:31.116Z,6.40
2023-01-31T16:19:58.291Z,6.40
2023-01-31T16:22:25.501Z,6.40
2023-01-31T16:25:00.686Z,6.40
2023-01-31T16:27:31.971Z,6.40
2023-01-31T16:29:59.853Z,6.40
2023-01-31T16:32:40.251Z,6.40
2023-01-31T16:35:22.615Z,6.40
2023-01-31T16:38:03.988Z,6.50
2023-01-31T16:40:35.565Z,6.50
2023-01-31T16:43:23.267Z,6.50
2023-01-31T16:46:02.922Z,6.50
2023-01-31T16:48:32.963Z,6.50
2023-01-31T16:51:21.214Z,6.60
2023-01-31T16:54:24.231Z,6.60
2023-01-31T16:57:22.392Z,6.60
2023-01-31T16:59:51.493Z,6.60
2023-01-31T17:02:25.985Z,6.60
2023-01-31T17:04:56.288Z,6.50
2023-01-31T17:07:25.033Z,6.50
2023-01-31T17:09:57.926Z,6.50
2023-01-31T17:12:30.792Z,6.50
2023-01-31T17:15:00.897Z,6.50
2023-01-31T17:17:34.027Z,6.50
2023-01-31T17:20:01.121Z,6.40
2023-01-31T17:24:55.043Z,6.50
2023-01-31T17:27:22.421Z,6.60
2023-01-31T17:29:49.329Z,6.60
2023-01-31T17:32:18.256Z,6.60
2023-01-31T17:34:45.888Z,6.70
2023-01-31T17:37:16.109Z,6.70
2023-01-31T17:39:48.820Z,6.70
2023-01-31T17:42:21.171Z,6.70
2023-01-31T17:44:48.309Z,6.80
2023-01-31T17:47:15.399Z,6.70
2023-01-31T17:49:43.200Z,6.70
2023-01-31T17:54:38.020Z,6.70
2023-01-31T17:57:04.743Z,6.70
2023-01-31T17:59:31.492Z,6.70
2023-01-31T18:02:00.362Z,6.70
2023-01-31T18:04:27.196Z,6.60
2023-01-31T18:06:54.183Z,6.60
2023-01-31T18:09:20.979Z,6.60
2023-01-31T18:11:47.929Z,6.60
2023-01-31T18:14:15.574Z,6.60
2023-01-31T18:19:11.428Z,6.40
2023-01-31T18:21:43.888Z,6.40
2023-01-31T18:24:13.929Z,6.40
2023-01-31T18:26:40.786Z,6.40
2023-01-31T18:29:07.767Z,6.30
2023-01-31T18:31:34.589Z,6.30
2023-01-31T18:34:01.395Z,6.30
2023-01-31T18:36:28.117Z,6.20
2023-01-31T18:38:54.891Z,6.20
2023-01-31T18:41:21.980Z,6.20
2023-01-31T18:43:49.525Z,6.10
2023-01-31T18:46:17.675Z,6.10
2023-01-31T18:48:45.136Z,6.10
2023-01-31T18:51:13.584Z,6.10
2023-01-31T18:53:47.224Z,6.10
2023-01-31T18:56:17.161Z,6.10
2023-01-31T18:58:45.233Z,6.10
2023-01-31T19:01:13.337Z,6.10
2023-01-31T19:03:41.404Z,6.10
2023-01-31T19:06:09.529Z,6.10
2023-01-31T19:08:36.289Z,6.20
2023-01-31T19:11:12.623Z,6.10
2023-01-31T19:13:40.559Z,6.10
2023-01-31T19:16:12.922Z,6.10
2023-01-31T19:18:40.387Z,6.10
2023-01-31T19:21:32.452Z,6.00
2023-01-31T19:24:01.591Z,6.00
2023-01-31T19:26:30.024Z,6.00
2023-01-31T19:28:58.612Z,5.90
2023-01-31T19:31:27.246Z,5.90
2023-01-31T19:33:59.443Z,5.90
2023-01-31T19:36:31.509Z,5.90
2023-01-31T19:38:59.717Z,5.80
2023-01-31T19:41:27.736Z,5.80
2023-01-31T19:43:56.760Z,5.80
2023-01-31T19:46:25.385Z,5.80
2023-01-31T19:48:52.170Z,5.80
2023-01-31T19:51:20.744Z,5.70
2023-01-31T19:53:48.302Z,5.70
2023-01-31T19:56:15.995Z,5.60
2023-01-31T19:58:43.019Z,5.60
2023-01-31T20:01:16.063Z,5.60
2023-01-31T20:03:44.369Z,5.60
2023-01-31T20:06:16.888Z,5.60
2023-01-31T20:08:43.664Z,5.60
2023-01-31T20:11:11.761Z,5.50
2023-01-31T20:13:38.572Z,5.50
2023-01-31T20:16:07.993Z,5.50
2023-01-31T20:18:36.369Z,5.50
2023-01-31T20:21:03.570Z,5.50
2023-01-31T20:23:30.453Z,5.50
2023-01-31T20:25:57.845Z,5.40
2023-01-31T20:28:26.096Z,5.40
2023-01-31T20:30:53.237Z,5.30
2023-01-31T20:33:20.043Z,5.30
2023-01-31T20:35:47.187Z,5.30
2023-01-31T20:38:15.537Z,5.30
2023-01-31T20:40:48.158Z,5.30
2023-01-31T20:43:14.869Z,5.20
2023-01-31T20:45:41.649Z,5.20
2023-01-31T20:48:08.472Z,5.20
2023-01-31T20:50:35.256Z,5.10
2023-01-31T20:53:02.133Z,5.10
2023-01-31T20:55:30.567Z,5.10
2023-01-31T20:57:58.520Z,5.00
2023-01-31T21:00:25.688Z,5.10
2023-01-31T21:02:52.477Z,5.10
2023-01-31T21:05:19.582Z,5.10
2023-01-31T21:07:46.335Z,5.00
2023-01-31T21:10:13.580Z,5.00
2023-01-31T21:12:40.294Z,5.00
2023-01-31T21:15:07.773Z,4.90
2023-01-31T21:17:40.313Z,5.00
2023-01-31T21:20:08.732Z,4.90
2023-01-31T21:22:35.534Z,5.00
2023-01-31T21:25:02.556Z,4.90
2023-01-31T21:27:29.435Z,4.90
2023-01-31T21:29:56.268Z,4.90
2023-01-31T21:32:23.166Z,4.90
2023-01-31T21:34:49.913Z,4.90
2023-01-31T21:37:16.651Z,4.90
2023-01-31T21:39:43.395Z,4.90
2023-01-31T21:42:15.578Z,4.90
2023-01-31T21:44:47.105Z,4.80
2023-01-31T21:47:15.654Z,4.80
2023-01-31T21:49:42.854Z,4.80
2023-01-31T21:52:10.038Z,4.80
2023-01-31T21:54:37.236Z,4.80
2023-01-31T21:57:04.263Z,4.80
2023-01-31T21:59:32.467Z,4.80
2023-01-31T22:01:59.475Z,4.80
2023-01-31T22:04:26.516Z,4.70
2023-01-31T22:06:53.610Z,4.70
2023-01-31T22:09:20.357Z,4.70
2023-01-31T22:11:47.981Z,4.60
2023-01-31T22:14:16.436Z,4.60
2023-01-31T22:16:43.847Z,4.60
2023-01-31T22:19:12.411Z,4.60
2023-01-31T22:21:40.370Z,4.60
2023-01-31T22:24:09.070Z,4.50
2023-01-31T22:26:38.579Z,4.50
2023-01-31T22:29:07.433Z,4.50
2023-01-31T22:31:34.820Z,4.50
2023-01-31T22:34:04.526Z,4.50
2023-01-31T22:36:32.486Z,4.40
2023-01-31T22:41:26.491Z,4.50
2023-01-31T22:43:53.784Z,4.40
2023-01-31T22:46:23.409Z,4.40
2023-01-31T22:48:51.000Z,4.40
2023-01-31T22:51:23.478Z,4.40
2023-01-31T22:53:50.560Z,4.40
2023-01-31T22:56:18.735Z,4.40
2023-01-31T22:58:46.019Z,4.40
2023-01-31T23:01:15.375Z,4.40
2023-01-31T23:03:42.692Z,4.40
2023-01-31T23:06:10.884Z,4.40
2023-01-31T23:08:38.402Z,4.30
2023-01-31T23:11:08.119Z,4.30
2023-01-31T23:13:36.084Z,4.30
2023-01-31T23:16:04.665Z,4.30
2023-01-31T23:18:31.519Z,4.30
2023-01-31T23:21:09.666Z,4.30
2023-01-31T23:23:36.532Z,4.30
2023-01-31T23:26:04.223Z,4.30
2023-01-31T23:28:31.647Z,4.20
2023-01-31T23:30:58.418Z,4.30
2023-01-31T23:33:25.227Z,4.30
2023-01-31T23:35:52.023Z,4.20
2023-01-31T23:38:18.792Z,4.20
2023-01-31T23:40:51.883Z,4.20
2023-01-31T23:45:45.916Z,4.20
2023-01-31T23:48:12.975Z,4.20
2023-01-31T23:53:06.801Z,4.30
2023-01-31T23:55:33.510Z,4.20
2023-01-31T23:58:00.303Z,4.20
